Information for Shanghai Pudong

back to airport list

ICAO Code:ZSPD Country:China
Airport Name: Shanghai Pudong Is Hub:No
Latitude:31.1433 Longitude:121.805
Scheduled Departures:0 Scheduled Arrivals:0
Total Past Departures:1 Total Past Arrivals:1
Pilots Based:0 Current Pilot Location:0
ZSPD 202100Z 33005MPS CAVOK 09/07 Q1026 NOSIG


Nearby Destination Airports

ICAO Airport Country GC Distance View
No destination airports within a 500 NM radius!


+ Show Timetable

Scheduled Departures from ZSPD

Flight To Destination Days Dep. Time Aircraft Info
No Scheduled Departures!


Scheduled Arrivals to ZSPD

Flight From Origin Days Arr. Time Aircraft Info
No Scheduled Arrivals!
+ Show Recent Flight Info

Recent Departures from ZSPD

Flight To Destination Pilot Flighttime Landingrate Aircraft View
ASX194 RJTT Tokyo Damian Belica 02.45.33 -153 ft/m B763 View Report


Recent Arrivals to ZSPD

Flight From Origin Pilot Flighttime Landingrate Aircraft View
ASX193 VHHX Kai Tak Damian Belica 02.16.39 -180 ft/m B763 View Report
+ Show Pilot Information

Pilots based at ZSPD

Avatar Pilot ID Name Location Rank View Profile
No Pilots are based at this airport!


Pilots currently at ZSPD

Avatar Pilot ID Name Location Rank On Location since View Profile
Currently there are no pilots at this airport!
- Hide Map